sensor_id;sensor_type;location;lat;lon;timestamp;temperature;humidity
1476;DHT22;730;48.870;12.542;2024-01-30T00:02:13;2.40;1.00
1476;DHT22;730;48.870;12.542;2024-01-30T00:04:39;2.40;1.00
1476;DHT22;730;48.870;12.542;2024-01-30T00:07:05;2.30;1.00
1476;DHT22;730;48.870;12.542;2024-01-30T00:09:31;2.30;1.00
1476;DHT22;730;48.870;12.542;2024-01-30T00:11:57;2.30;1.00
1476;DHT22;730;48.870;12.542;2024-01-30T00:14:24;2.20;1.00
1476;DHT22;730;48.870;12.542;2024-01-30T00:16:51;2.20;1.00
1476;DHT22;730;48.870;12.542;2024-01-30T00:19:17;2.20;1.00
1476;DHT22;730;48.870;12.542;2024-01-30T00:21:43;2.20;1.00
1476;DHT22;730;48.870;12.542;2024-01-30T00:24:09;2.20;1.00
1476;DHT22;730;48.870;12.542;2024-01-30T00:26:35;2.20;1.00
1476;DHT22;730;48.870;12.542;2024-01-30T00:29:01;2.20;1.00
1476;DHT22;730;48.870;12.542;2024-01-30T00:31:28;2.10;1.00
1476;DHT22;730;48.870;12.542;2024-01-30T00:33:55;2.10;1.00
1476;DHT22;730;48.870;12.542;2024-01-30T00:36:21;2.10;1.00
1476;DHT22;730;48.870;12.542;2024-01-30T00:38:47;2.10;1.00
1476;DHT22;730;48.870;12.542;2024-01-30T00:41:14;2.10;1.00
1476;DHT22;730;48.870;12.542;2024-01-30T00:43:40;2.10;1.00
1476;DHT22;730;48.870;12.542;2024-01-30T00:46:06;2.10;1.00
1476;DHT22;730;48.870;12.542;2024-01-30T00:48:32;2.10;1.00
1476;DHT22;730;48.870;12.542;2024-01-30T00:50:58;2.10;1.00
1476;DHT22;730;48.870;12.542;2024-01-30T00:53:24;2.10;1.00
1476;DHT22;730;48.870;12.542;2024-01-30T00:55:50;2.10;1.00
1476;DHT22;730;48.870;12.542;2024-01-30T00:58:16;2.10;1.00
1476;DHT22;730;48.870;12.542;2024-01-30T01:00:42;2.10;1.00
1476;DHT22;730;48.870;12.542;2024-01-30T01:03:08;2.10;1.00
1476;DHT22;730;48.870;12.542;2024-01-30T01:05:34;2.00;1.00
1476;DHT22;730;48.870;12.542;2024-01-30T01:08:00;2.00;1.00
1476;DHT22;730;48.870;12.542;2024-01-30T01:10:26;2.00;1.00
1476;DHT22;730;48.870;12.542;2024-01-30T01:12:53;2.00;1.00
1476;DHT22;730;48.870;12.542;2024-01-30T01:15:20;2.00;1.00
1476;DHT22;730;48.870;12.542;2024-01-30T01:17:46;1.90;1.00
1476;DHT22;730;48.870;12.542;2024-01-30T01:20:12;1.90;1.00
1476;DHT22;730;48.870;12.542;2024-01-30T01:22:39;1.80;1.00
1476;DHT22;730;48.870;12.542;2024-01-30T01:25:05;1.80;1.00
1476;DHT22;730;48.870;12.542;2024-01-30T01:27:34;1.70;1.00
1476;DHT22;730;48.870;12.542;2024-01-30T01:30:04;1.70;1.00
1476;DHT22;730;48.870;12.542;2024-01-30T01:32:31;1.70;1.00
1476;DHT22;730;48.870;12.542;2024-01-30T01:34:57;1.70;1.00
1476;DHT22;730;48.870;12.542;2024-01-30T01:37:23;1.70;1.00
1476;DHT22;730;48.870;12.542;2024-01-30T01:39:52;1.70;1.00
1476;DHT22;730;48.870;12.542;2024-01-30T01:42:18;1.70;1.00
1476;DHT22;730;48.870;12.542;2024-01-30T01:44:45;1.70;1.00
1476;DHT22;730;48.870;12.542;2024-01-30T01:47:11;1.60;1.00
1476;DHT22;730;48.870;12.542;2024-01-30T01:49:37;1.60;1.00
1476;DHT22;730;48.870;12.542;2024-01-30T01:52:03;1.70;1.00
1476;DHT22;730;48.870;12.542;2024-01-30T01:54:30;1.70;1.00
1476;DHT22;730;48.870;12.542;2024-01-30T01:56:57;1.60;1.00
1476;DHT22;730;48.870;12.542;2024-01-30T01:59:23;1.60;1.00
1476;DHT22;730;48.870;12.542;2024-01-30T02:01:51;1.60;1.00
1476;DHT22;730;48.870;12.542;2024-01-30T02:04:17;1.60;1.00
1476;DHT22;730;48.870;12.542;2024-01-30T02:06:44;1.50;1.00
1476;DHT22;730;48.870;12.542;2024-01-30T02:09:10;1.50;1.00
1476;DHT22;730;48.870;12.542;2024-01-30T02:11:36;1.50;1.00
1476;DHT22;730;48.870;12.542;2024-01-30T02:14:03;1.50;1.00
1476;DHT22;730;48.870;12.542;2024-01-30T02:16:30;1.50;1.00
1476;DHT22;730;48.870;12.542;2024-01-30T02:18:56;1.50;1.00
1476;DHT22;730;48.870;12.542;2024-01-30T02:21:22;1.50;1.00
1476;DHT22;730;48.870;12.542;2024-01-30T02:23:50;1.40;1.00
1476;DHT22;730;48.870;12.542;2024-01-30T02:26:22;1.40;1.00
1476;DHT22;730;48.870;12.542;2024-01-30T02:28:49;1.40;1.00
1476;DHT22;730;48.870;12.542;2024-01-30T02:31:15;1.40;1.00
1476;DHT22;730;48.870;12.542;2024-01-30T02:33:41;1.30;1.00
1476;DHT22;730;48.870;12.542;2024-01-30T02:36:07;1.30;1.00
1476;DHT22;730;48.870;12.542;2024-01-30T02:38:33;1.30;1.00
1476;DHT22;730;48.870;12.542;2024-01-30T02:40:59;1.30;1.00
1476;DHT22;730;48.870;12.542;2024-01-30T02:43:25;1.20;1.00
1476;DHT22;730;48.870;12.542;2024-01-30T02:45:52;1.20;1.00
1476;DHT22;730;48.870;12.542;2024-01-30T02:48:21;1.30;1.00
1476;DHT22;730;48.870;12.542;2024-01-30T02:50:47;1.30;1.00
1476;DHT22;730;48.870;12.542;2024-01-30T02:53:13;1.30;1.00
1476;DHT22;730;48.870;12.542;2024-01-30T02:55:39;1.40;1.00
1476;DHT22;730;48.870;12.542;2024-01-30T02:58:05;1.40;1.00
1476;DHT22;730;48.870;12.542;2024-01-30T03:00:32;1.40;1.00
1476;DHT22;730;48.870;12.542;2024-01-30T03:02:58;1.40;1.00
1476;DHT22;730;48.870;12.542;2024-01-30T03:05:25;1.40;1.00
1476;DHT22;730;48.870;12.542;2024-01-30T03:07:51;1.40;1.00
1476;DHT22;730;48.870;12.542;2024-01-30T03:10:17;1.40;1.00
1476;DHT22;730;48.870;12.542;2024-01-30T03:12:43;1.40;1.00
1476;DHT22;730;48.870;12.542;2024-01-30T03:15:09;1.40;1.00
1476;DHT22;730;48.870;12.542;2024-01-30T03:17:35;1.40;1.00
1476;DHT22;730;48.870;12.542;2024-01-30T03:20:03;1.40;1.00
1476;DHT22;730;48.870;12.542;2024-01-30T03:22:29;1.30;1.00
1476;DHT22;730;48.870;12.542;2024-01-30T03:24:55;1.30;1.00
1476;DHT22;730;48.870;12.542;2024-01-30T03:27:21;1.30;1.00
1476;DHT22;730;48.870;12.542;2024-01-30T03:29:47;1.30;1.00
1476;DHT22;730;48.870;12.542;2024-01-30T03:32:13;1.30;1.00
1476;DHT22;730;48.870;12.542;2024-01-30T03:34:40;1.30;1.00
1476;DHT22;730;48.870;12.542;2024-01-30T03:37:06;1.30;1.00
1476;DHT22;730;48.870;12.542;2024-01-30T03:39:32;1.30;1.00
1476;DHT22;730;48.870;12.542;2024-01-30T03:42:00;1.30;1.00
1476;DHT22;730;48.870;12.542;2024-01-30T03:44:26;1.30;1.00
1476;DHT22;730;48.870;12.542;2024-01-30T03:46:52;1.30;1.00
1476;DHT22;730;48.870;12.542;2024-01-30T03:49:19;1.30;1.00
1476;DHT22;730;48.870;12.542;2024-01-30T03:51:45;1.30;1.00
1476;DHT22;730;48.870;12.542;2024-01-30T03:54:13;1.30;1.00
1476;DHT22;730;48.870;12.542;2024-01-30T03:56:39;1.20;1.00
1476;DHT22;730;48.870;12.542;2024-01-30T03:59:05;1.20;1.00
1476;DHT22;730;48.870;12.542;2024-01-30T04:01:31;1.20;1.00
1476;DHT22;730;48.870;12.542;2024-01-30T04:03:57;1.20;1.00
1476;DHT22;730;48.870;12.542;2024-01-30T04:06:23;1.20;1.00
1476;DHT22;730;48.870;12.542;2024-01-30T04:08:49;1.10;1.00
1476;DHT22;730;48.870;12.542;2024-01-30T04:11:18;1.20;1.00
1476;DHT22;730;48.870;12.542;2024-01-30T04:13:45;1.20;1.00
1476;DHT22;730;48.870;12.542;2024-01-30T04:16:31;1.20;1.00
1476;DHT22;730;48.870;12.542;2024-01-30T04:18:58;1.10;1.00
1476;DHT22;730;48.870;12.542;2024-01-30T04:21:25;1.10;1.00
1476;DHT22;730;48.870;12.542;2024-01-30T04:23:51;1.10;1.00
1476;DHT22;730;48.870;12.542;2024-01-30T04:26:17;1.10;1.00
1476;DHT22;730;48.870;12.542;2024-01-30T04:28:46;1.10;1.00
1476;DHT22;730;48.870;12.542;2024-01-30T04:31:12;1.10;1.00
1476;DHT22;730;48.870;12.542;2024-01-30T04:33:39;1.10;1.00
1476;DHT22;730;48.870;12.542;2024-01-30T04:36:08;1.10;1.00
1476;DHT22;730;48.870;12.542;2024-01-30T04:38:36;1.00;1.00
1476;DHT22;730;48.870;12.542;2024-01-30T04:41:02;1.00;1.00
1476;DHT22;730;48.870;12.542;2024-01-30T04:43:28;1.00;1.00
1476;DHT22;730;48.870;12.542;2024-01-30T04:45:54;1.00;1.00
1476;DHT22;730;48.870;12.542;2024-01-30T04:48:20;0.90;1.00
1476;DHT22;730;48.870;12.542;2024-01-30T04:50:46;0.90;1.00
1476;DHT22;730;48.870;12.542;2024-01-30T04:53:12;0.90;1.00
1476;DHT22;730;48.870;12.542;2024-01-30T04:55:38;0.90;1.00
1476;DHT22;730;48.870;12.542;2024-01-30T04:58:04;0.90;1.00
1476;DHT22;730;48.870;12.542;2024-01-30T05:00:30;0.80;1.00
1476;DHT22;730;48.870;12.542;2024-01-30T05:02:56;0.80;1.00
1476;DHT22;730;48.870;12.542;2024-01-30T05:05:22;0.80;1.00
1476;DHT22;730;48.870;12.542;2024-01-30T05:07:48;0.90;1.00
1476;DHT22;730;48.870;12.542;2024-01-30T05:10:14;0.80;1.00
1476;DHT22;730;48.870;12.542;2024-01-30T05:12:40;0.80;1.00
1476;DHT22;730;48.870;12.542;2024-01-30T05:15:07;0.80;1.00
1476;DHT22;730;48.870;12.542;2024-01-30T05:17:33;0.80;1.00
1476;DHT22;730;48.870;12.542;2024-01-30T05:19:59;0.80;1.00
1476;DHT22;730;48.870;12.542;2024-01-30T05:22:25;0.80;1.00
1476;DHT22;730;48.870;12.542;2024-01-30T05:24:51;0.80;1.00
1476;DHT22;730;48.870;12.542;2024-01-30T05:27:17;0.80;1.00
1476;DHT22;730;48.870;12.542;2024-01-30T05:29:43;0.80;1.00
1476;DHT22;730;48.870;12.542;2024-01-30T05:32:09;0.80;1.00
1476;DHT22;730;48.870;12.542;2024-01-30T05:34:36;0.80;1.00
1476;DHT22;730;48.870;12.542;2024-01-30T05:37:03;0.80;1.00
1476;DHT22;730;48.870;12.542;2024-01-30T05:39:29;0.80;1.00
1476;DHT22;730;48.870;12.542;2024-01-30T05:41:55;0.80;1.00
1476;DHT22;730;48.870;12.542;2024-01-30T05:44:21;0.80;1.00
1476;DHT22;730;48.870;12.542;2024-01-30T05:46:47;0.80;1.00
1476;DHT22;730;48.870;12.542;2024-01-30T05:49:13;0.80;1.00
1476;DHT22;730;48.870;12.542;2024-01-30T05:51:45;0.80;1.00
1476;DHT22;730;48.870;12.542;2024-01-30T05:54:11;0.80;1.00
1476;DHT22;730;48.870;12.542;2024-01-30T05:56:37;0.80;1.00
1476;DHT22;730;48.870;12.542;2024-01-30T05:59:03;0.70;1.00
1476;DHT22;730;48.870;12.542;2024-01-30T06:01:29;0.70;1.00
1476;DHT22;730;48.870;12.542;2024-01-30T06:03:55;0.60;1.00
1476;DHT22;730;48.870;12.542;2024-01-30T06:06:21;0.60;1.00
1476;DHT22;730;48.870;12.542;2024-01-30T06:08:47;0.60;1.00
1476;DHT22;730;48.870;12.542;2024-01-30T06:11:13;0.60;1.00
1476;DHT22;730;48.870;12.542;2024-01-30T06:13:39;0.60;1.00
1476;DHT22;730;48.870;12.542;2024-01-30T06:16:09;0.60;1.00
1476;DHT22;730;48.870;12.542;2024-01-30T06:18:36;0.60;1.00
1476;DHT22;730;48.870;12.542;2024-01-30T06:21:02;0.50;1.00
1476;DHT22;730;48.870;12.542;2024-01-30T06:23:28;0.50;1.00
1476;DHT22;730;48.870;12.542;2024-01-30T06:25:54;0.50;1.00
1476;DHT22;730;48.870;12.542;2024-01-30T06:28:21;0.50;1.00
1476;DHT22;730;48.870;12.542;2024-01-30T06:30:48;0.50;1.00
1476;DHT22;730;48.870;12.542;2024-01-30T06:33:14;0.50;1.00
1476;DHT22;730;48.870;12.542;2024-01-30T06:35:40;0.50;1.00
1476;DHT22;730;48.870;12.542;2024-01-30T06:38:06;0.50;1.00
1476;DHT22;730;48.870;12.542;2024-01-30T06:40:32;0.40;1.00
1476;DHT22;730;48.870;12.542;2024-01-30T06:42:58;0.40;1.00
1476;DHT22;730;48.870;12.542;2024-01-30T06:45:25;0.50;1.00
1476;DHT22;730;48.870;12.542;2024-01-30T06:47:51;0.40;1.00
1476;DHT22;730;48.870;12.542;2024-01-30T06:50:17;0.40;1.00
1476;DHT22;730;48.870;12.542;2024-01-30T06:52:43;0.40;1.00
1476;DHT22;730;48.870;12.542;2024-01-30T06:55:09;0.40;1.00
1476;DHT22;730;48.870;12.542;2024-01-30T06:57:35;0.40;1.00
1476;DHT22;730;48.870;12.542;2024-01-30T07:00:01;0.40;1.00
1476;DHT22;730;48.870;12.542;2024-01-30T07:02:27;0.40;1.00
1476;DHT22;730;48.870;12.542;2024-01-30T07:04:53;0.50;1.00
1476;DHT22;730;48.870;12.542;2024-01-30T07:07:19;0.50;1.00
1476;DHT22;730;48.870;12.542;2024-01-30T07:09:45;0.50;1.00
1476;DHT22;730;48.870;12.542;2024-01-30T07:12:13;0.50;1.00
1476;DHT22;730;48.870;12.542;2024-01-30T07:14:39;0.50;1.00
1476;DHT22;730;48.870;12.542;2024-01-30T07:17:05;0.60;1.00
1476;DHT22;730;48.870;12.542;2024-01-30T07:19:31;0.70;1.00
1476;DHT22;730;48.870;12.542;2024-01-30T07:21:57;0.80;1.00
1476;DHT22;730;48.870;12.542;2024-01-30T07:24:23;0.80;1.00
1476;DHT22;730;48.870;12.542;2024-01-30T07:26:50;1.00;1.00
1476;DHT22;730;48.870;12.542;2024-01-30T07:29:16;1.10;1.00
1476;DHT22;730;48.870;12.542;2024-01-30T07:31:42;1.20;1.00
1476;DHT22;730;48.870;12.542;2024-01-30T07:34:09;1.40;1.00
1476;DHT22;730;48.870;12.542;2024-01-30T07:36:35;1.60;1.00
1476;DHT22;730;48.870;12.542;2024-01-30T07:39:00;1.70;1.00
1476;DHT22;730;48.870;12.542;2024-01-30T07:41:26;1.90;1.00
1476;DHT22;730;48.870;12.542;2024-01-30T07:43:53;2.10;1.00
1476;DHT22;730;48.870;12.542;2024-01-30T07:46:19;2.40;1.00
1476;DHT22;730;48.870;12.542;2024-01-30T07:48:47;2.60;1.00
1476;DHT22;730;48.870;12.542;2024-01-30T07:51:13;2.80;1.00
1476;DHT22;730;48.870;12.542;2024-01-30T07:53:39;3.00;1.00
1476;DHT22;730;48.870;12.542;2024-01-30T07:56:05;3.20;1.00
1476;DHT22;730;48.870;12.542;2024-01-30T07:58:31;3.40;1.00
1476;DHT22;730;48.870;12.542;2024-01-30T08:00:57;3.60;1.00
1476;DHT22;730;48.870;12.542;2024-01-30T08:03:24;3.80;1.00
1476;DHT22;730;48.870;12.542;2024-01-30T08:05:50;4.00;1.00
1476;DHT22;730;48.870;12.542;2024-01-30T08:08:16;4.20;1.00
1476;DHT22;730;48.870;12.542;2024-01-30T08:10:42;4.30;1.00
1476;DHT22;730;48.870;12.542;2024-01-30T08:13:08;4.40;1.00
1476;DHT22;730;48.870;12.542;2024-01-30T08:15:35;4.40;1.00
1476;DHT22;730;48.870;12.542;2024-01-30T08:18:01;4.60;1.00
1476;DHT22;730;48.870;12.542;2024-01-30T08:20:27;4.80;1.00
1476;DHT22;730;48.870;12.542;2024-01-30T08:22:59;4.90;1.00
1476;DHT22;730;48.870;12.542;2024-01-30T08:25:26;5.10;1.00
1476;DHT22;730;48.870;12.542;2024-01-30T08:27:52;5.20;1.00
1476;DHT22;730;48.870;12.542;2024-01-30T08:30:19;5.40;1.00
1476;DHT22;730;48.870;12.542;2024-01-30T08:32:45;5.60;1.00
1476;DHT22;730;48.870;12.542;2024-01-30T08:35:11;5.70;1.00
1476;DHT22;730;48.870;12.542;2024-01-30T08:37:39;5.90;1.00
1476;DHT22;730;48.870;12.542;2024-01-30T08:40:10;6.10;1.00
1476;DHT22;730;48.870;12.542;2024-01-30T08:42:36;6.20;1.00
1476;DHT22;730;48.870;12.542;2024-01-30T08:45:02;6.40;1.00
1476;DHT22;730;48.870;12.542;2024-01-30T08:47:30;6.60;1.00
1476;DHT22;730;48.870;12.542;2024-01-30T08:49:57;6.70;1.00
1476;DHT22;730;48.870;12.542;2024-01-30T08:52:23;6.70;1.00
1476;DHT22;730;48.870;12.542;2024-01-30T08:54:49;6.70;1.00
1476;DHT22;730;48.870;12.542;2024-01-30T08:57:15;6.70;1.00
1476;DHT22;730;48.870;12.542;2024-01-30T08:59:41;6.60;1.00
1476;DHT22;730;48.870;12.542;2024-01-30T09:02:07;6.60;1.00
1476;DHT22;730;48.870;12.542;2024-01-30T09:04:33;6.70;1.00
1476;DHT22;730;48.870;12.542;2024-01-30T09:06:59;6.70;1.00
1476;DHT22;730;48.870;12.542;2024-01-30T09:09:25;6.80;1.00
1476;DHT22;730;48.870;12.542;2024-01-30T09:11:51;6.80;1.00
1476;DHT22;730;48.870;12.542;2024-01-30T09:14:17;6.90;1.00
1476;DHT22;730;48.870;12.542;2024-01-30T09:16:43;6.80;1.00
1476;DHT22;730;48.870;12.542;2024-01-30T09:19:09;6.70;1.00
1476;DHT22;730;48.870;12.542;2024-01-30T09:21:35;6.70;1.00
1476;DHT22;730;48.870;12.542;2024-01-30T09:24:02;6.80;1.00
1476;DHT22;730;48.870;12.542;2024-01-30T09:26:29;6.80;1.00
1476;DHT22;730;48.870;12.542;2024-01-30T09:28:55;6.80;1.00
1476;DHT22;730;48.870;12.542;2024-01-30T09:31:21;6.70;1.00
1476;DHT22;730;48.870;12.542;2024-01-30T09:33:47;6.70;1.00
1476;DHT22;730;48.870;12.542;2024-01-30T09:36:15;6.70;1.00
1476;DHT22;730;48.870;12.542;2024-01-30T09:38:44;6.70;1.00
1476;DHT22;730;48.870;12.542;2024-01-30T09:41:10;6.60;1.00
1476;DHT22;730;48.870;12.542;2024-01-30T09:43:38;6.60;1.00
1476;DHT22;730;48.870;12.542;2024-01-30T09:46:05;6.50;1.00
1476;DHT22;730;48.870;12.542;2024-01-30T09:48:34;6.60;1.00
1476;DHT22;730;48.870;12.542;2024-01-30T09:51:00;6.60;1.00
1476;DHT22;730;48.870;12.542;2024-01-30T09:53:27;6.70;1.00
1476;DHT22;730;48.870;12.542;2024-01-30T09:55:58;6.60;1.00
1476;DHT22;730;48.870;12.542;2024-01-30T09:58:24;6.60;1.00
1476;DHT22;730;48.870;12.542;2024-01-30T10:00:50;6.60;1.00
1476;DHT22;730;48.870;12.542;2024-01-30T10:03:16;6.60;1.00
1476;DHT22;730;48.870;12.542;2024-01-30T10:05:52;6.60;1.00
1476;DHT22;730;48.870;12.542;2024-01-30T10:08:21;6.60;1.00
1476;DHT22;730;48.870;12.542;2024-01-30T10:10:48;6.70;1.00
1476;DHT22;730;48.870;12.542;2024-01-30T10:13:16;6.70;1.00
1476;DHT22;730;48.870;12.542;2024-01-30T10:15:42;6.70;1.00
1476;DHT22;730;48.870;12.542;2024-01-30T10:18:08;6.70;1.00
1476;DHT22;730;48.870;12.542;2024-01-30T10:20:36;6.70;1.00
1476;DHT22;730;48.870;12.542;2024-01-30T10:23:02;6.60;1.00
1476;DHT22;730;48.870;12.542;2024-01-30T10:25:31;6.60;1.00
1476;DHT22;730;48.870;12.542;2024-01-30T10:27:59;6.70;1.00
1476;DHT22;730;48.870;12.542;2024-01-30T10:30:25;6.70;1.00
1476;DHT22;730;48.870;12.542;2024-01-30T10:32:51;6.70;1.00
1476;DHT22;730;48.870;12.542;2024-01-30T10:35:17;6.80;1.00
1476;DHT22;730;48.870;12.542;2024-01-30T10:37:43;6.80;1.00
1476;DHT22;730;48.870;12.542;2024-01-30T10:40:13;6.80;1.00
1476;DHT22;730;48.870;12.542;2024-01-30T10:42:43;6.80;1.00
1476;DHT22;730;48.870;12.542;2024-01-30T10:45:13;6.80;1.00
1476;DHT22;730;48.870;12.542;2024-01-30T10:47:48;6.80;1.00
1476;DHT22;730;48.870;12.542;2024-01-30T10:50:15;6.80;1.00
1476;DHT22;730;48.870;12.542;2024-01-30T10:52:41;6.70;1.00
1476;DHT22;730;48.870;12.542;2024-01-30T10:55:11;6.80;1.00
1476;DHT22;730;48.870;12.542;2024-01-30T10:57:37;6.90;1.00
1476;DHT22;730;48.870;12.542;2024-01-30T11:00:08;6.90;1.00
1476;DHT22;730;48.870;12.542;2024-01-30T11:02:40;6.90;1.00
1476;DHT22;730;48.870;12.542;2024-01-30T11:05:06;7.10;1.00
1476;DHT22;730;48.870;12.542;2024-01-30T11:07:32;7.20;1.00
1476;DHT22;730;48.870;12.542;2024-01-30T11:10:00;7.40;1.00
1476;DHT22;730;48.870;12.542;2024-01-30T11:12:30;7.40;1.00
1476;DHT22;730;48.870;12.542;2024-01-30T11:15:17;7.50;1.00
1476;DHT22;730;48.870;12.542;2024-01-30T11:17:50;7.60;1.00
1476;DHT22;730;48.870;12.542;2024-01-30T11:20:27;7.70;1.00
1476;DHT22;730;48.870;12.542;2024-01-30T11:22:56;7.70;1.00
1476;DHT22;730;48.870;12.542;2024-01-30T11:25:23;7.70;1.00
1476;DHT22;730;48.870;12.542;2024-01-30T11:27:51;7.60;1.00
1476;DHT22;730;48.870;12.542;2024-01-30T11:30:28;7.60;1.00
1476;DHT22;730;48.870;12.542;2024-01-30T11:35:36;7.50;1.00
1476;DHT22;730;48.870;12.542;2024-01-30T11:38:03;7.60;1.00
1476;DHT22;730;48.870;12.542;2024-01-30T11:40:37;7.60;1.00
1476;DHT22;730;48.870;12.542;2024-01-30T11:43:04;7.70;1.00
1476;DHT22;730;48.870;12.542;2024-01-30T11:45:32;7.70;1.00
1476;DHT22;730;48.870;12.542;2024-01-30T11:47:58;7.70;1.00
1476;DHT22;730;48.870;12.542;2024-01-30T11:50:30;7.80;1.00
1476;DHT22;730;48.870;12.542;2024-01-30T11:52:56;7.80;1.00
1476;DHT22;730;48.870;12.542;2024-01-30T11:55:23;7.90;1.00
1476;DHT22;730;48.870;12.542;2024-01-30T11:57:49;7.90;1.00
1476;DHT22;730;48.870;12.542;2024-01-30T12:00:16;7.90;1.00
1476;DHT22;730;48.870;12.542;2024-01-30T12:02:44;8.00;1.00
1476;DHT22;730;48.870;12.542;2024-01-30T12:05:10;8.00;1.00
1476;DHT22;730;48.870;12.542;2024-01-30T12:07:36;8.00;1.00
1476;DHT22;730;48.870;12.542;2024-01-30T12:10:03;8.10;1.00
1476;DHT22;730;48.870;12.542;2024-01-30T12:12:31;8.20;1.00
1476;DHT22;730;48.870;12.542;2024-01-30T12:14:57;8.20;1.00
1476;DHT22;730;48.870;12.542;2024-01-30T12:20:10;8.30;1.00
1476;DHT22;730;48.870;12.542;2024-01-30T12:22:38;8.30;1.00
1476;DHT22;730;48.870;12.542;2024-01-30T12:25:08;8.40;1.00
1476;DHT22;730;48.870;12.542;2024-01-30T12:27:35;8.50;1.00
1476;DHT22;730;48.870;12.542;2024-01-30T12:30:04;8.60;1.00
1476;DHT22;730;48.870;12.542;2024-01-30T12:32:30;8.80;1.00
1476;DHT22;730;48.870;12.542;2024-01-30T12:34:57;8.90;1.00
1476;DHT22;730;48.870;12.542;2024-01-30T12:37:24;9.10;1.00
1476;DHT22;730;48.870;12.542;2024-01-30T12:39:53;9.10;1.00
1476;DHT22;730;48.870;12.542;2024-01-30T12:42:20;9.30;1.00
1476;DHT22;730;48.870;12.542;2024-01-30T12:44:48;9.40;1.00
1476;DHT22;730;48.870;12.542;2024-01-30T12:47:14;9.50;1.00
1476;DHT22;730;48.870;12.542;2024-01-30T12:49:43;9.70;1.00
1476;DHT22;730;48.870;12.542;2024-01-30T12:52:20;9.80;1.00
1476;DHT22;730;48.870;12.542;2024-01-30T12:54:48;10.00;1.00
1476;DHT22;730;48.870;12.542;2024-01-30T12:57:14;10.20;1.00
1476;DHT22;730;48.870;12.542;2024-01-30T12:59:40;10.30;1.00
1476;DHT22;730;48.870;12.542;2024-01-30T13:02:06;10.40;1.00
1476;DHT22;730;48.870;12.542;2024-01-30T13:04:33;10.50;1.00
1476;DHT22;730;48.870;12.542;2024-01-30T13:06:59;10.60;1.00
1476;DHT22;730;48.870;12.542;2024-01-30T13:09:26;10.70;1.00
1476;DHT22;730;48.870;12.542;2024-01-30T13:11:53;10.80;1.00
1476;DHT22;730;48.870;12.542;2024-01-30T13:14:19;10.90;1.00
1476;DHT22;730;48.870;12.542;2024-01-30T13:16:45;11.00;1.00
1476;DHT22;730;48.870;12.542;2024-01-30T13:19:11;11.20;1.00
1476;DHT22;730;48.870;12.542;2024-01-30T13:21:37;11.30;1.00
1476;DHT22;730;48.870;12.542;2024-01-30T13:24:04;11.50;1.00
1476;DHT22;730;48.870;12.542;2024-01-30T13:26:32;11.70;1.00
1476;DHT22;730;48.870;12.542;2024-01-30T13:28:58;11.80;1.00
1476;DHT22;730;48.870;12.542;2024-01-30T13:31:24;12.10;1.00
1476;DHT22;730;48.870;12.542;2024-01-30T13:33:51;12.20;1.00
1476;DHT22;730;48.870;12.542;2024-01-30T13:36:17;12.20;1.00
1476;DHT22;730;48.870;12.542;2024-01-30T13:38:43;12.30;1.00
1476;DHT22;730;48.870;12.542;2024-01-30T13:41:09;12.30;1.00
1476;DHT22;730;48.870;12.542;2024-01-30T13:43:35;12.40;1.00
1476;DHT22;730;48.870;12.542;2024-01-30T13:46:01;12.50;1.00
1476;DHT22;730;48.870;12.542;2024-01-30T13:48:27;12.70;1.00
1476;DHT22;730;48.870;12.542;2024-01-30T13:50:54;12.80;1.00
1476;DHT22;730;48.870;12.542;2024-01-30T13:53:20;12.90;1.00
1476;DHT22;730;48.870;12.542;2024-01-30T13:55:46;12.80;1.00
1476;DHT22;730;48.870;12.542;2024-01-30T13:58:13;12.80;1.00
1476;DHT22;730;48.870;12.542;2024-01-30T14:00:39;12.80;1.00
1476;DHT22;730;48.870;12.542;2024-01-30T14:03:05;12.70;1.00
1476;DHT22;730;48.870;12.542;2024-01-30T14:05:31;12.60;1.00
1476;DHT22;730;48.870;12.542;2024-01-30T14:07:58;12.50;1.00
1476;DHT22;730;48.870;12.542;2024-01-30T14:10:24;12.40;1.00
1476;DHT22;730;48.870;12.542;2024-01-30T14:12:50;12.30;1.00
1476;DHT22;730;48.870;12.542;2024-01-30T14:15:16;12.20;1.00
1476;DHT22;730;48.870;12.542;2024-01-30T14:17:45;12.30;1.00
1476;DHT22;730;48.870;12.542;2024-01-30T14:20:14;12.30;1.00
1476;DHT22;730;48.870;12.542;2024-01-30T14:22:42;12.40;1.00
1476;DHT22;730;48.870;12.542;2024-01-30T14:25:09;12.40;1.00
1476;DHT22;730;48.870;12.542;2024-01-30T14:27:36;12.30;1.00
1476;DHT22;730;48.870;12.542;2024-01-30T14:30:02;12.20;1.00
1476;DHT22;730;48.870;12.542;2024-01-30T14:32:29;12.10;1.00
1476;DHT22;730;48.870;12.542;2024-01-30T14:34:55;11.90;1.00
1476;DHT22;730;48.870;12.542;2024-01-30T14:37:21;11.70;1.00
1476;DHT22;730;48.870;12.542;2024-01-30T14:39:48;11.60;1.00
1476;DHT22;730;48.870;12.542;2024-01-30T14:42:14;11.40;1.00
1476;DHT22;730;48.870;12.542;2024-01-30T14:44:41;11.30;1.00
1476;DHT22;730;48.870;12.542;2024-01-30T14:47:07;11.20;1.00
1476;DHT22;730;48.870;12.542;2024-01-30T14:49:34;11.30;1.00
1476;DHT22;730;48.870;12.542;2024-01-30T14:52:00;11.40;1.00
1476;DHT22;730;48.870;12.542;2024-01-30T14:54:27;11.70;1.00
1476;DHT22;730;48.870;12.542;2024-01-30T14:56:53;12.00;1.00
1476;DHT22;730;48.870;12.542;2024-01-30T14:59:19;12.50;1.00
1476;DHT22;730;48.870;12.542;2024-01-30T15:01:46;13.00;1.00
1476;DHT22;730;48.870;12.542;2024-01-30T15:04:14;13.40;1.00
1476;DHT22;730;48.870;12.542;2024-01-30T15:06:40;13.80;1.00
1476;DHT22;730;48.870;12.542;2024-01-30T15:09:11;14.10;1.00
1476;DHT22;730;48.870;12.542;2024-01-30T15:11:41;14.30;1.00
1476;DHT22;730;48.870;12.542;2024-01-30T15:14:07;14.60;1.00
1476;DHT22;730;48.870;12.542;2024-01-30T15:16:33;14.70;1.00
1476;DHT22;730;48.870;12.542;2024-01-30T15:18:59;14.70;1.00
1476;DHT22;730;48.870;12.542;2024-01-30T15:21:25;14.50;1.00
1476;DHT22;730;48.870;12.542;2024-01-30T15:23:52;14.40;1.00
1476;DHT22;730;48.870;12.542;2024-01-30T15:26:18;14.00;1.00
1476;DHT22;730;48.870;12.542;2024-01-30T15:28:44;13.70;1.00
1476;DHT22;730;48.870;12.542;2024-01-30T15:31:10;13.40;1.00
1476;DHT22;730;48.870;12.542;2024-01-30T15:33:36;13.00;1.00
1476;DHT22;730;48.870;12.542;2024-01-30T15:36:02;12.70;1.00
1476;DHT22;730;48.870;12.542;2024-01-30T15:38:29;12.30;1.00
1476;DHT22;730;48.870;12.542;2024-01-30T15:40:55;12.00;1.00
1476;DHT22;730;48.870;12.542;2024-01-30T15:43:22;11.70;1.00
1476;DHT22;730;48.870;12.542;2024-01-30T15:45:49;11.40;1.00
1476;DHT22;730;48.870;12.542;2024-01-30T15:48:19;11.10;1.00
1476;DHT22;730;48.870;12.542;2024-01-30T15:50:46;10.80;1.00
1476;DHT22;730;48.870;12.542;2024-01-30T15:53:12;10.60;1.00
1476;DHT22;730;48.870;12.542;2024-01-30T15:55:38;10.40;1.00
1476;DHT22;730;48.870;12.542;2024-01-30T15:58:04;10.20;1.00
1476;DHT22;730;48.870;12.542;2024-01-30T16:00:32;10.00;1.00
1476;DHT22;730;48.870;12.542;2024-01-30T16:02:58;9.80;1.00
1476;DHT22;730;48.870;12.542;2024-01-30T16:05:24;9.60;1.00
1476;DHT22;730;48.870;12.542;2024-01-30T16:07:50;9.40;1.00
1476;DHT22;730;48.870;12.542;2024-01-30T16:10:16;9.30;1.00
1476;DHT22;730;48.870;12.542;2024-01-30T16:12:43;9.10;1.00
1476;DHT22;730;48.870;12.542;2024-01-30T16:15:12;9.00;1.00
1476;DHT22;730;48.870;12.542;2024-01-30T16:17:38;8.90;1.00
1476;DHT22;730;48.870;12.542;2024-01-30T16:20:05;8.70;1.00
1476;DHT22;730;48.870;12.542;2024-01-30T16:22:35;8.60;1.00
1476;DHT22;730;48.870;12.542;2024-01-30T16:25:04;8.50;1.00
1476;DHT22;730;48.870;12.542;2024-01-30T16:27:30;8.30;1.00
1476;DHT22;730;48.870;12.542;2024-01-30T16:29:56;8.20;1.00
1476;DHT22;730;48.870;12.542;2024-01-30T16:32:22;8.10;1.00
1476;DHT22;730;48.870;12.542;2024-01-30T16:34:49;8.00;1.00